Time;durP1;ratioP1;P1;durP2;ratioP2;P2;SDS_P1;SDS_P2;PMS_P1;PMS_P2;Temp;Humidity;BMP_temperature;BMP_pressure;BME280_temperature;BME280_humidity;BME280_pressure;Samples;Min_cycle;Max_cycle;Signal;HPM_P1;HPM_P2
2022/01/11 00:00:50;;;;;;;300.77;43.60;;;-0.30;99.90;;;;;;5058709;28;20495;-50
2022/01/11 00:03:17;;;;;;;259.00;42.13;;;-0.30;99.90;;;;;;5060696;28;20433;-50
2022/01/11 00:08:11;;;;;;;153.07;39.22;;;-0.20;99.90;;;;;;5060037;28;20049;-49
2022/01/11 00:10:47;;;;;;;317.83;49.03;;;-0.10;99.90;;;;;;5059476;28;20079;-51
2022/01/11 00:13:15;;;;;;;207.65;38.75;;;-0.10;99.90;;;;;;5060071;28;20045;-52
2022/01/11 00:15:41;;;;;;;252.60;42.83;;;-0.10;99.90;;;;;;5060918;28;20052;-47
2022/01/11 00:18:06;;;;;;;275.10;41.53;;;-0.10;99.90;;;;;;5056748;28;20094;-49
2022/01/11 00:20:32;;;;;;;292.33;43.13;;;-0.10;99.90;;;;;;5060301;28;20152;-51
2022/01/11 00:25:32;;;;;;;278.83;43.65;;;-0.10;99.90;;;;;;5059617;28;20049;-50
2022/01/11 00:27:58;;;;;;;174.50;39.15;;;-0.10;99.90;;;;;;5060188;28;20045;-48
2022/01/11 00:30:30;;;;;;;227.23;41.72;;;0.00;99.90;;;;;;5053907;28;20079;-50
2022/01/11 00:32:57;;;;;;;231.38;41.45;;;0.00;99.90;;;;;;5063077;28;20044;-48
2022/01/11 00:35:28;;;;;;;271.52;44.88;;;0.00;99.90;;;;;;5056349;28;20494;-49
2022/01/11 00:37:55;;;;;;;226.38;41.67;;;0.00;99.90;;;;;;5055064;28;20168;-49
2022/01/11 00:40:20;;;;;;;382.10;49.78;;;0.00;99.90;;;;;;5056553;28;20041;-49
2022/01/11 00:42:46;;;;;;;186.13;39.22;;;0.00;99.90;;;;;;5059074;28;20047;-50
2022/01/11 00:45:13;;;;;;;233.85;44.53;;;0.00;99.90;;;;;;5054543;28;20041;-47
2022/01/11 00:47:39;;;;;;;231.57;41.45;;;0.00;99.90;;;;;;5056855;28;20082;-48
2022/01/11 00:50:07;;;;;;;222.27;40.58;;;0.00;99.90;;;;;;5059925;28;20037;-47
2022/01/11 00:52:33;;;;;;;273.85;42.80;;;0.00;99.90;;;;;;5061828;28;20050;-47
2022/01/11 00:54:59;;;;;;;303.30;46.85;;;0.00;99.90;;;;;;5058983;28;20045;-47
2022/01/11 00:57:25;;;;;;;449.45;56.70;;;0.00;99.90;;;;;;5064024;28;20515;-48
2022/01/11 00:59:51;;;;;;;223.90;43.58;;;0.00;99.90;;;;;;5065843;28;20036;-47
2022/01/11 01:02:16;;;;;;;338.58;52.22;;;0.00;99.90;;;;;;5060210;28;20049;-49
2022/01/11 01:04:42;;;;;;;181.32;42.97;;;0.10;99.90;;;;;;5059239;28;20055;-52
2022/01/11 01:07:08;;;;;;;175.57;42.03;;;0.10;99.90;;;;;;5065606;28;20035;-50
2022/01/11 01:10:02;;;;;;;313.45;50.08;;;0.10;99.90;;;;;;5066041;28;20044;-53
2022/01/11 01:12:19;;;;;;;209.48;42.42;;;0.10;99.90;;;;;;5063173;28;20047;-49
2022/01/11 01:14:45;;;;;;;207.93;43.50;;;0.10;99.90;;;;;;5058531;28;20057;-47
2022/01/11 01:17:10;;;;;;;231.55;44.30;;;0.10;99.90;;;;;;5062926;28;20041;-47
2022/01/11 01:19:36;;;;;;;210.73;46.22;;;0.20;99.90;;;;;;5057248;28;20051;-47
2022/01/11 01:22:02;;;;;;;326.67;47.55;;;0.20;99.90;;;;;;5056354;28;20431;-53
2022/01/11 01:24:27;;;;;;;252.82;46.80;;;0.20;99.90;;;;;;5065340;28;20059;-52
2022/01/11 01:26:53;;;;;;;429.65;56.80;;;0.20;99.90;;;;;;5060618;28;20377;-52
2022/01/11 01:29:18;;;;;;;131.35;38.35;;;0.30;99.90;;;;;;5060824;28;20056;-49
2022/01/11 01:31:44;;;;;;;440.80;58.85;;;0.30;99.90;;;;;;5056978;28;20043;-51
2022/01/11 01:34:10;;;;;;;315.52;48.75;;;0.20;99.90;;;;;;5053451;28;20051;-48
2022/01/11 01:36:35;;;;;;;273.88;44.33;;;0.30;99.90;;;;;;5055043;28;20736;-49
2022/01/11 01:39:01;;;;;;;264.52;45.92;;;0.20;99.90;;;;;;5057754;28;20087;-51
2022/01/11 01:41:27;;;;;;;201.48;39.45;;;0.20;99.90;;;;;;5056085;28;20452;-52
2022/01/11 01:43:56;;;;;;;333.85;46.25;;;0.10;99.90;;;;;;5055776;28;20163;-48
2022/01/11 01:46:22;;;;;;;289.00;43.28;;;0.10;99.90;;;;;;5052564;28;20053;-49
2022/01/11 01:48:48;;;;;;;226.55;36.45;;;0.00;99.90;;;;;;5054374;28;20144;-50
2022/01/11 01:51:15;;;;;;;225.70;38.42;;;0.00;99.90;;;;;;5065223;28;20511;-48
2022/01/11 01:53:47;;;;;;;286.73;41.88;;;0.00;99.90;;;;;;5062931;28;20052;-48
2022/01/11 01:56:14;;;;;;;198.40;35.03;;;-0.10;99.90;;;;;;5061620;28;20052;-50
2022/01/11 01:58:40;;;;;;;258.90;37.83;;;-0.10;99.90;;;;;;5060815;28;20041;-47
2022/01/11 02:01:06;;;;;;;217.75;34.53;;;-0.20;99.90;;;;;;5061650;28;20046;-47
2022/01/11 02:03:38;;;;;;;387.67;44.90;;;-0.20;99.90;;;;;;5060744;28;20053;-47
2022/01/11 02:06:06;;;;;;;275.65;39.63;;;-0.30;99.90;;;;;;5061900;28;20123;-47
2022/01/11 02:08:32;;;;;;;250.65;36.47;;;-0.40;99.90;;;;;;5062421;28;20086;-48
2022/01/11 02:10:58;;;;;;;203.13;33.40;;;-0.40;99.90;;;;;;5056458;28;20044;-51
2022/01/11 02:13:23;;;;;;;287.67;40.22;;;-0.40;99.90;;;;;;5055851;28;20070;-50
2022/01/11 02:15:50;;;;;;;184.80;34.50;;;-0.40;99.90;;;;;;5064406;28;20446;-52
2022/01/11 02:18:20;;;;;;;168.52;33.47;;;-0.40;99.90;;;;;;5056410;28;20049;-50
2022/01/11 02:20:47;;;;;;;302.23;41.10;;;-0.40;99.90;;;;;;5061776;28;20051;-52
2022/01/11 02:23:14;;;;;;;162.85;34.75;;;-0.40;99.90;;;;;;5060539;28;20418;-51
2022/01/11 02:25:40;;;;;;;211.50;36.25;;;-0.40;99.90;;;;;;5064580;28;20570;-52
2022/01/11 02:28:08;;;;;;;131.75;33.38;;;-0.40;99.90;;;;;;5057932;28;20192;-50
2022/01/11 02:30:34;;;;;;;187.57;33.58;;;-0.40;99.90;;;;;;5061460;28;20044;-47
2022/01/11 02:33:04;;;;;;;165.10;32.97;;;-0.40;99.90;;;;;;5065280;28;20513;-46
2022/01/11 02:35:30;;;;;;;219.65;35.42;;;-0.40;99.90;;;;;;5061598;28;20140;-52
2022/01/11 02:37:55;;;;;;;143.75;34.10;;;-0.50;99.90;;;;;;5063205;28;20138;-51
2022/01/11 02:40:21;;;;;;;160.73;33.25;;;-0.50;99.90;;;;;;5058252;28;20098;-52
2022/01/11 02:42:46;;;;;;;265.65;38.17;;;-0.50;99.90;;;;;;5056630;28;20036;-47
2022/01/11 02:45:19;;;;;;;151.40;32.78;;;-0.50;99.90;;;;;;5059764;28;20056;-49
2022/01/11 02:47:46;;;;;;;226.77;35.35;;;-0.50;99.90;;;;;;5059934;28;20110;-48
2022/01/11 02:50:13;;;;;;;247.07;35.67;;;-0.50;99.90;;;;;;5055008;28;20038;-51
2022/01/11 02:52:39;;;;;;;212.13;34.60;;;-0.60;99.90;;;;;;5061027;28;20509;-48
2022/01/11 02:55:11;;;;;;;227.10;33.63;;;-0.60;99.90;;;;;;5055803;28;20049;-47
2022/01/11 02:57:38;;;;;;;222.10;32.53;;;-0.70;99.90;;;;;;5060263;28;20563;-47
2022/01/11 03:00:08;;;;;;;176.93;30.50;;;-0.70;99.90;;;;;;5057933;28;20468;-47
2022/01/11 03:02:34;;;;;;;213.45;31.15;;;-0.70;99.90;;;;;;5061285;28;20052;-49
2022/01/11 03:04:59;;;;;;;192.07;30.25;;;-0.70;99.90;;;;;;5056969;28;20033;-50
2022/01/11 03:07:25;;;;;;;146.18;29.42;;;-0.70;99.90;;;;;;5056449;28;20289;-48
2022/01/11 03:10:28;;;;;;;230.10;34.40;;;-0.70;99.90;;;;;;5059362;28;20072;-47
2022/01/11 03:12:43;;;;;;;175.55;29.63;;;-0.80;99.90;;;;;;5060876;28;20102;-48
2022/01/11 03:15:11;;;;;;;199.57;29.52;;;-0.80;99.90;;;;;;5062510;28;20140;-46
2022/01/11 03:17:37;;;;;;;;;;;-0.90;99.90;;;;;;5056145;28;20089;-48
2022/01/11 03:20:04;;;;;;;195.35;30.60;;;-0.90;99.90;;;;;;5061482;28;19929;-47
2022/01/11 03:22:29;;;;;;;143.48;25.98;;;-1.00;99.90;;;;;;5060691;28;20105;-51
2022/01/11 03:24:55;;;;;;;153.32;27.35;;;-1.00;99.90;;;;;;5063800;28;20413;-51
2022/01/11 03:27:20;;;;;;;107.68;28.45;;;-1.00;99.90;;;;;;5065452;28;20550;-47
2022/01/11 03:29:46;;;;;;;155.73;29.50;;;-1.00;99.90;;;;;;5067818;28;20127;-47
2022/01/11 03:32:16;;;;;;;134.95;28.58;;;-1.10;99.90;;;;;;5066253;28;20467;-49
2022/01/11 03:34:45;;;;;;;151.18;31.75;;;-1.10;99.90;;;;;;5065906;28;20506;-48
2022/01/11 03:37:13;;;;;;;;;;;-1.00;99.90;;;;;;5060103;28;20045;-50
2022/01/11 03:39:39;;;;;;;126.25;27.08;;;-1.00;99.90;;;;;;5082051;28;19956;-49
2022/01/11 03:42:04;;;;;;;96.45;29.17;;;-1.00;99.90;;;;;;5061029;28;20498;-49
2022/01/11 03:44:30;;;;;;;118.75;28.35;;;-0.90;99.90;;;;;;5067840;28;20401;-49
2022/01/11 03:46:55;;;;;;;78.90;29.13;;;-0.90;99.90;;;;;;5059753;28;20036;-47
2022/01/11 03:49:21;;;;;;;97.63;30.35;;;-0.90;99.90;;;;;;5070731;28;20482;-49
2022/01/11 03:51:49;;;;;;;110.93;31.98;;;-0.90;99.90;;;;;;5063734;28;20047;-52
2022/01/11 03:54:22;;;;;;;96.75;30.73;;;-0.90;99.90;;;;;;5069795;28;20312;-51
2022/01/11 03:56:48;;;;;;;89.72;29.80;;;-0.90;99.90;;;;;;5066211;28;20405;-52
2022/01/11 03:59:13;;;;;;;167.07;33.35;;;-0.90;99.90;;;;;;5062915;28;20043;-50
2022/01/11 04:01:39;;;;;;;189.20;35.90;;;-1.00;99.90;;;;;;5062922;28;20033;-51
2022/01/11 04:04:06;;;;;;;107.70;31.52;;;-1.00;99.90;;;;;;5054244;28;20351;-48
2022/01/11 04:06:31;;;;;;;109.63;31.52;;;-1.00;99.90;;;;;;5062862;28;20029;-47
2022/01/11 04:08:57;;;;;;;156.95;31.35;;;-1.00;99.90;;;;;;5068015;28;20054;-50
2022/01/11 04:11:23;;;;;;;130.82;31.10;;;-1.00;99.90;;;;;;5060846;28;20198;-47
2022/01/11 04:13:48;;;;;;;133.40;31.55;;;-1.00;99.90;;;;;;5059597;28;20402;-47
2022/01/11 04:16:15;;;;;;;139.05;31.25;;;-1.00;99.90;;;;;;5062376;28;20045;-51
2022/01/11 04:18:41;;;;;;;132.40;31.63;;;-1.00;99.90;;;;;;5062113;28;20040;-47
2022/01/11 04:21:07;;;;;;;168.63;34.00;;;-1.00;99.90;;;;;;5062414;28;20029;-51
2022/01/11 04:23:34;;;;;;;150.20;32.08;;;-1.00;99.90;;;;;;5063978;28;20057;-49
2022/01/11 04:26:00;;;;;;;106.95;32.17;;;-1.00;99.90;;;;;;5067156;28;20045;-47
2022/01/11 04:28:27;;;;;;;124.65;34.17;;;-1.00;99.90;;;;;;5062516;28;20131;-48
2022/01/11 04:31:00;;;;;;;98.10;33.38;;;-1.00;99.90;;;;;;5061081;28;20045;-48
2022/01/11 04:33:27;;;;;;;91.32;34.22;;;-1.00;99.90;;;;;;5057448;28;20163;-48
2022/01/11 04:35:53;;;;;;;82.72;33.08;;;-1.00;99.90;;;;;;5060872;28;20102;-47
2022/01/11 04:38:20;;;;;;;79.28;33.13;;;-1.00;99.90;;;;;;5064743;28;20490;-49
2022/01/11 04:40:46;;;;;;;97.60;37.10;;;-1.00;99.90;;;;;;5064625;28;20469;-49
2022/01/11 04:43:12;;;;;;;146.13;43.47;;;-1.00;99.90;;;;;;5059082;28;20120;-48
2022/01/11 04:45:38;;;;;;;106.88;38.05;;;-1.00;99.90;;;;;;5053373;28;20410;-49
2022/01/11 04:48:04;;;;;;;90.13;38.92;;;-0.90;99.90;;;;;;5060636;28;20481;-49
2022/01/11 04:50:30;;;;;;;119.35;42.45;;;-1.00;99.90;;;;;;5061904;28;20076;-48
2022/01/11 04:52:55;;;;;;;121.53;41.85;;;-0.90;99.90;;;;;;5062050;28;20142;-48
2022/01/11 04:55:22;;;;;;;114.88;43.13;;;-1.00;99.90;;;;;;5066254;28;20343;-53
2022/01/11 04:57:48;;;;;;;98.93;38.72;;;-0.90;99.90;;;;;;5060623;28;20232;-48
2022/01/11 05:00:15;;;;;;;98.72;41.35;;;-1.00;99.90;;;;;;5053317;28;20106;-48
2022/01/11 05:02:41;;;;;;;104.07;40.90;;;-0.90;99.90;;;;;;5060036;28;20040;-48
2022/01/11 05:05:08;;;;;;;85.45;40.15;;;-0.90;99.90;;;;;;5054400;28;20047;-49
2022/01/11 05:07:33;;;;;;;93.22;41.03;;;-0.90;99.90;;;;;;5066256;28;20094;-48
2022/01/11 05:09:59;;;;;;;93.07;41.90;;;-0.90;99.90;;;;;;5057443;28;20045;-48
2022/01/11 05:12:25;;;;;;;97.57;41.35;;;-0.90;99.90;;;;;;5055708;28;20052;-51
2022/01/11 05:14:50;;;;;;;85.35;41.38;;;-0.90;99.90;;;;;;5064058;28;20080;-51
2022/01/11 05:17:16;;;;;;;78.35;38.42;;;-0.90;99.90;;;;;;5053215;28;20402;-50
2022/01/11 05:19:42;;;;;;;77.15;40.10;;;-0.90;99.90;;;;;;5061146;28;20078;-49
2022/01/11 05:22:07;;;;;;;83.20;41.17;;;-0.80;99.90;;;;;;5059560;28;20103;-47
2022/01/11 05:24:33;;;;;;;79.18;38.67;;;-0.80;99.90;;;;;;5062887;28;20559;-49
2022/01/11 05:26:58;;;;;;;86.35;40.65;;;-0.80;99.90;;;;;;5063336;28;20045;-50
2022/01/11 05:29:24;;;;;;;77.00;38.97;;;-0.80;99.90;;;;;;5064487;28;20459;-48
2022/01/11 05:31:50;;;;;;;85.63;40.63;;;-0.90;99.90;;;;;;5055262;28;20033;-48
2022/01/11 05:34:15;;;;;;;80.10;39.72;;;-0.90;99.90;;;;;;5062797;28;20036;-48
2022/01/11 05:36:41;;;;;;;81.72;38.90;;;-0.90;99.90;;;;;;5065729;28;20040;-47
2022/01/11 05:39:07;;;;;;;73.25;37.47;;;-0.90;99.90;;;;;;5060757;28;20056;-51
2022/01/11 05:41:33;;;;;;;84.18;40.42;;;-0.90;99.90;;;;;;5062914;28;20091;-46
2022/01/11 05:43:58;;;;;;;79.88;39.33;;;-0.80;99.90;;;;;;5060029;28;20152;-52
2022/01/11 05:46:24;;;;;;;85.40;40.33;;;-0.80;99.90;;;;;;5056944;28;20136;-46
2022/01/11 05:48:50;;;;;;;77.70;38.80;;;-0.80;99.90;;;;;;5056955;28;20064;-49
2022/01/11 05:51:16;;;;;;;82.43;40.22;;;-0.80;99.90;;;;;;5062189;28;20106;-50
2022/01/11 05:53:43;;;;;;;87.03;40.65;;;-0.80;99.90;;;;;;5064804;28;20037;-50
2022/01/11 05:56:08;;;;;;;87.07;40.72;;;-0.80;99.90;;;;;;5062744;28;20493;-48
2022/01/11 05:58:35;;;;;;;81.55;39.33;;;-0.70;99.90;;;;;;5063432;28;20048;-50
2022/01/11 06:01:01;;;;;;;85.40;40.60;;;-0.80;99.90;;;;;;5055202;28;20037;-48
2022/01/11 06:03:26;;;;;;;86.00;40.63;;;-0.80;99.90;;;;;;5063331;28;20040;-49
2022/01/11 06:05:52;;;;;;;82.72;38.45;;;-0.80;99.90;;;;;;5061536;28;20033;-48
2022/01/11 06:08:18;;;;;;;81.78;37.78;;;-0.80;99.90;;;;;;5055080;28;20057;-52
2022/01/11 06:10:44;;;;;;;83.55;39.55;;;-0.80;99.90;;;;;;5064340;28;20037;-47
2022/01/11 06:13:10;;;;;;;82.22;38.72;;;-0.80;99.90;;;;;;5062265;28;20064;-51
2022/01/11 06:15:36;;;;;;;74.25;38.00;;;-0.80;99.90;;;;;;5064260;28;20073;-50
2022/01/11 06:18:03;;;;;;;78.57;37.67;;;-0.80;99.90;;;;;;5057891;28;20041;-48
2022/01/11 06:20:29;;;;;;;80.05;39.20;;;-0.80;99.90;;;;;;5061794;28;20439;-48
2022/01/11 06:22:54;;;;;;;82.20;39.90;;;-0.80;99.90;;;;;;5060705;28;20086;-52
2022/01/11 06:25:20;;;;;;;81.97;38.55;;;-0.80;99.90;;;;;;5055585;28;20123;-47
2022/01/11 06:27:46;;;;;;;79.72;40.13;;;-0.70;99.90;;;;;;5057987;28;20395;-50
2022/01/11 06:30:12;;;;;;;76.53;38.50;;;-0.70;99.90;;;;;;5059888;28;20048;-51
2022/01/11 06:32:38;;;;;;;77.80;39.38;;;-0.70;99.90;;;;;;5066549;28;20056;-50
2022/01/11 06:35:05;;;;;;;81.38;36.42;;;-0.70;99.90;;;;;;5063172;28;20375;-48
2022/01/11 06:37:31;;;;;;;79.22;36.22;;;-0.60;99.90;;;;;;5060236;28;20062;-48
2022/01/11 06:39:57;;;;;;;68.40;34.10;;;-0.60;99.90;;;;;;5061136;28;20041;-51
2022/01/11 06:42:22;;;;;;;72.55;32.92;;;-0.60;99.90;;;;;;5064433;28;20376;-49
2022/01/11 06:44:48;;;;;;;62.60;32.35;;;-0.60;99.90;;;;;;5065578;28;20084;-50
2022/01/11 06:47:13;;;;;;;61.38;32.42;;;-0.50;99.90;;;;;;5059591;28;20041;-47
2022/01/11 06:49:39;;;;;;;59.17;30.73;;;-0.50;99.90;;;;;;5061130;28;20033;-48
2022/01/11 06:52:05;;;;;;;61.92;29.90;;;-0.50;99.90;;;;;;5060399;28;20151;-47
2022/01/11 06:54:31;;;;;;;58.00;29.63;;;-0.50;99.90;;;;;;5059769;28;20090;-47
2022/01/11 06:56:57;;;;;;;59.33;31.95;;;-0.50;99.90;;;;;;5055469;28;20033;-48
2022/01/11 06:59:23;;;;;;;56.33;28.73;;;-0.50;99.90;;;;;;5057395;28;20555;-50
2022/01/11 07:01:49;;;;;;;59.50;29.83;;;-0.50;99.90;;;;;;5066993;28;20044;-48
2022/01/11 07:04:15;;;;;;;57.25;29.85;;;-0.50;99.90;;;;;;5060623;28;20037;-48
2022/01/11 07:06:40;;;;;;;55.63;29.45;;;-0.60;99.90;;;;;;5060238;28;21192;-50
2022/01/11 07:09:06;;;;;;;56.55;29.02;;;-0.60;99.90;;;;;;5058767;28;20517;-51
2022/01/11 07:11:32;;;;;;;59.60;29.65;;;-0.60;99.90;;;;;;5061420;28;20364;-51
2022/01/11 07:13:57;;;;;;;57.03;28.40;;;-0.60;99.90;;;;;;5066950;28;20110;-52
2022/01/11 07:16:23;;;;;;;50.78;26.85;;;-0.70;99.90;;;;;;5057464;28;20383;-49
2022/01/11 07:18:49;;;;;;;53.10;26.85;;;-0.70;99.90;;;;;;5057203;28;20048;-47
2022/01/11 07:21:15;;;;;;;52.70;27.83;;;-0.70;99.90;;;;;;5061407;28;20040;-48
2022/01/11 07:23:40;;;;;;;55.25;27.33;;;-0.70;99.90;;;;;;5066242;28;20051;-49
2022/01/11 07:26:09;;;;;;;53.78;27.20;;;-0.70;99.90;;;;;;5057839;28;20037;-48
2022/01/11 07:28:35;;;;;;;47.75;26.65;;;-0.70;99.90;;;;;;5064678;28;20048;-46
2022/01/11 07:31:01;;;;;;;54.67;27.95;;;-0.70;99.90;;;;;;5060539;28;20364;-51
2022/01/11 07:33:26;;;;;;;54.88;28.13;;;-0.70;99.90;;;;;;5054463;28;20134;-50
2022/01/11 07:35:52;;;;;;;51.03;28.48;;;-0.70;99.90;;;;;;5063218;28;20040;-49
2022/01/11 07:38:17;;;;;;;52.20;26.63;;;-0.80;99.90;;;;;;5066394;28;20090;-49
2022/01/11 07:40:43;;;;;;;51.60;26.20;;;-0.80;99.90;;;;;;5057672;28;20056;-49
2022/01/11 07:43:09;;;;;;;47.47;25.55;;;-0.70;99.90;;;;;;5068179;28;20131;-52
2022/01/11 07:45:34;;;;;;;49.28;22.48;;;-0.70;99.90;;;;;;5071825;28;20398;-50
2022/01/11 07:48:00;;;;;;;43.05;23.67;;;-0.70;99.90;;;;;;5059840;28;20548;-48
2022/01/11 07:50:26;;;;;;;46.92;25.67;;;-0.70;99.90;;;;;;5062398;28;20045;-47
2022/01/11 07:52:51;;;;;;;46.70;25.20;;;-0.70;99.90;;;;;;5072956;28;20045;-51
2022/01/11 07:55:18;;;;;;;49.65;24.85;;;-0.60;99.90;;;;;;5057032;28;20044;-48
2022/01/11 07:57:44;;;;;;;49.40;25.60;;;-0.70;99.90;;;;;;5072535;28;20482;-48
2022/01/11 08:00:10;;;;;;;47.60;23.85;;;-0.70;99.90;;;;;;5060898;28;20044;-52
2022/01/11 08:02:35;;;;;;;44.38;23.27;;;-0.60;99.90;;;;;;5060846;28;20585;-49
2022/01/11 08:05:02;;;;;;;46.53;23.48;;;-0.60;99.90;;;;;;5061270;28;20531;-48
2022/01/11 08:07:28;;;;;;;42.00;23.35;;;-0.60;99.90;;;;;;5060303;28;20040;-51
2022/01/11 08:09:53;;;;;;;48.65;23.75;;;-0.50;99.90;;;;;;5069476;28;20049;-46
2022/01/11 08:12:19;;;;;;;42.70;23.05;;;-0.50;99.90;;;;;;5070865;28;20084;-51
2022/01/11 08:14:44;;;;;;;45.97;23.88;;;-0.50;99.90;;;;;;5058975;28;20080;-47
2022/01/11 08:17:10;;;;;;;38.95;22.67;;;-0.40;99.90;;;;;;5058659;28;20043;-51
2022/01/11 08:19:35;;;;;;;47.17;23.63;;;-0.40;99.90;;;;;;5061137;28;20040;-50
2022/01/11 08:22:01;;;;;;;37.63;23.25;;;-0.40;99.90;;;;;;5063401;28;20173;-49
2022/01/11 08:24:27;;;;;;;44.25;22.98;;;-0.30;99.90;;;;;;5063220;28;20086;-48
2022/01/11 08:26:54;;;;;;;40.53;23.35;;;-0.30;99.90;;;;;;5057130;28;20069;-47
2022/01/11 08:29:20;;;;;;;37.97;22.15;;;-0.20;99.90;;;;;;5059827;28;20047;-49
2022/01/11 08:31:46;;;;;;;40.05;22.58;;;-0.20;99.90;;;;;;5060197;28;20542;-50
2022/01/11 08:34:14;;;;;;;36.65;21.50;;;-0.10;99.90;;;;;;5064683;28;20044;-51
2022/01/11 08:36:41;;;;;;;35.45;21.92;;;0.00;99.90;;;;;;5072498;28;20040;-49
2022/01/11 08:39:07;;;;;;;37.75;20.90;;;0.00;99.90;;;;;;5061100;28;20033;-51
2022/01/11 08:41:32;;;;;;;34.47;21.10;;;0.10;99.90;;;;;;5072941;28;20153;-51
2022/01/11 08:43:58;;;;;;;36.05;20.63;;;0.10;99.90;;;;;;5056515;28;20120;-50
2022/01/11 08:46:23;;;;;;;30.73;19.02;;;0.20;99.90;;;;;;5056950;28;20067;-50
2022/01/11 08:48:49;;;;;;;29.00;19.48;;;0.30;99.90;;;;;;5052355;28;20138;-48
2022/01/11 08:51:15;;;;;;;33.83;19.27;;;0.30;99.90;;;;;;5053308;28;20464;-48
2022/01/11 08:53:41;;;;;;;31.25;19.98;;;0.30;99.90;;;;;;5071248;28;20057;-49
2022/01/11 08:56:07;;;;;;;32.33;20.20;;;0.40;99.90;;;;;;5072537;28;20060;-51
2022/01/11 08:58:33;;;;;;;32.22;20.88;;;0.40;99.90;;;;;;5072444;28;20123;-49
2022/01/11 09:00:58;;;;;;;35.22;21.40;;;0.50;99.90;;;;;;5072836;28;20115;-51
2022/01/11 09:03:24;;;;;;;37.78;22.13;;;0.50;99.90;;;;;;5071586;28;20501;-51
2022/01/11 09:05:52;;;;;;;38.75;21.52;;;0.60;99.90;;;;;;5051792;28;20037;-52
2022/01/11 09:08:18;;;;;;;34.50;20.60;;;0.60;99.90;;;;;;5060198;28;20143;-52
2022/01/11 09:10:43;;;;;;;37.30;21.50;;;0.70;99.90;;;;;;5053214;28;20128;-49
2022/01/11 09:13:09;;;;;;;31.73;20.52;;;0.70;99.90;;;;;;5072057;28;20090;-52
2022/01/11 09:15:35;;;;;;;36.40;20.13;;;0.70;99.90;;;;;;5071823;28;20056;-48
2022/01/11 09:18:01;;;;;;;37.38;21.23;;;0.70;99.90;;;;;;5071413;28;20051;-51
2022/01/11 09:20:27;;;;;;;32.35;21.10;;;0.80;99.90;;;;;;5064489;28;20083;-50
2022/01/11 09:22:53;;;;;;;31.92;20.20;;;0.80;99.90;;;;;;5057081;28;20076;-51
2022/01/11 09:25:20;;;;;;;30.77;19.63;;;0.80;99.90;;;;;;5056665;28;20052;-50
2022/01/11 09:27:46;;;;;;;29.23;19.33;;;0.80;99.90;;;;;;5051556;28;20399;-51
2022/01/11 09:30:13;;;;;;;34.03;20.67;;;0.90;99.90;;;;;;5065428;28;20041;-51
2022/01/11 09:32:41;;;;;;;28.70;18.98;;;1.00;99.90;;;;;;5071666;28;20076;-51
2022/01/11 09:35:08;;;;;;;31.70;18.00;;;1.00;99.90;;;;;;5062325;28;20037;-51
2022/01/11 09:37:33;;;;;;;28.53;18.87;;;1.00;99.90;;;;;;5051541;28;20072;-47
2022/01/11 09:39:59;;;;;;;30.95;20.08;;;1.10;99.90;;;;;;5054209;28;20475;-49
2022/01/11 09:42:26;;;;;;;27.90;16.85;;;1.20;99.90;;;;;;5051756;28;20052;-48
2022/01/11 09:44:52;;;;;;;29.02;18.55;;;1.20;99.90;;;;;;5054798;28;20051;-47
2022/01/11 09:47:17;;;;;;;26.70;18.05;;;1.10;99.90;;;;;;5052844;28;20036;-49
2022/01/11 09:49:43;;;;;;;30.05;20.30;;;1.10;99.90;;;;;;5051113;28;20132;-48
2022/01/11 09:52:11;;;;;;;30.90;19.17;;;1.20;99.90;;;;;;5051578;28;20124;-48
2022/01/11 09:54:45;;;;;;;25.87;17.63;;;1.30;99.90;;;;;;5051057;28;20088;-47
2022/01/11 09:57:10;;;;;;;30.67;19.95;;;1.30;99.90;;;;;;5052494;28;20485;-49
2022/01/11 09:59:36;;;;;;;28.63;19.08;;;1.40;99.90;;;;;;5051357;28;20045;-49
2022/01/11 10:02:03;;;;;;;31.40;19.77;;;1.50;99.90;;;;;;5051049;28;20041;-50
2022/01/11 10:04:34;;;;;;;29.52;18.48;;;1.60;99.90;;;;;;5051048;28;20048;-50
2022/01/11 10:07:03;;;;;;;28.17;18.40;;;1.60;99.90;;;;;;5051150;28;20041;-50
2022/01/11 10:09:31;;;;;;;27.10;18.50;;;1.70;99.90;;;;;;5052553;28;20103;-49
2022/01/11 10:11:59;;;;;;;26.40;18.73;;;1.60;99.90;;;;;;5067468;28;20090;-47
2022/01/11 10:14:34;;;;;;;29.17;18.58;;;1.70;99.90;;;;;;5071233;28;20053;-47
2022/01/11 10:17:10;;;;;;;26.83;17.38;;;1.70;99.90;;;;;;5053898;28;20040;-48
2022/01/11 10:19:38;;;;;;;29.10;18.58;;;1.70;99.90;;;;;;5050920;28;20082;-47
2022/01/11 10:22:06;;;;;;;;;;;1.70;99.90;;;;;;5051442;28;20468;-47
2022/01/11 10:24:42;;;;;;;31.20;17.75;;;1.70;99.90;;;;;;5050980;28;19921;-46
2022/01/11 10:27:21;;;;;;;33.83;18.65;;;1.70;99.90;;;;;;5065789;28;20174;-51
2022/01/11 10:29:49;;;;;;;31.17;19.20;;;1.70;99.90;;;;;;5070886;28;20055;-48
2022/01/11 10:32:31;;;;;;;28.25;18.20;;;1.70;99.90;;;;;;5068332;28;20056;-49
2022/01/11 10:35:00;;;;;;;31.33;18.33;;;1.60;99.90;;;;;;5053197;28;20037;-48
2022/01/11 10:37:32;;;;;;;31.65;18.30;;;1.60;99.90;;;;;;5070994;28;20037;-47
2022/01/11 10:40:07;;;;;;;28.38;17.98;;;1.60;99.90;;;;;;5068601;28;20101;-47
2022/01/11 10:42:38;;;;;;;29.20;18.42;;;1.50;99.90;;;;;;5057605;28;20349;-49
2022/01/11 10:45:09;;;;;;;30.80;19.05;;;1.60;99.90;;;;;;5051072;28;20044;-51
2022/01/11 10:47:38;;;;;;;31.88;18.70;;;1.50;99.90;;;;;;5050806;28;20551;-48
2022/01/11 10:50:20;;;;;;;31.98;18.67;;;1.50;99.90;;;;;;5052008;28;20041;-46
2022/01/11 10:52:46;;;;;;;34.05;18.38;;;1.50;99.90;;;;;;5055497;28;20051;-50
2022/01/11 10:55:18;;;;;;;30.08;19.02;;;1.50;99.90;;;;;;5051137;28;20099;-46
2022/01/11 10:57:52;;;;;;;28.58;17.50;;;1.50;99.90;;;;;;5050542;28;20068;-50
2022/01/11 11:00:19;;;;;;;29.10;18.08;;;1.40;99.90;;;;;;5052919;28;20048;-48
2022/01/11 11:02:54;;;;;;;34.50;19.38;;;1.40;99.90;;;;;;5055480;28;20041;-47
2022/01/11 11:05:29;;;;;;;30.55;18.77;;;1.50;99.90;;;;;;5061794;28;20430;-48
2022/01/11 11:08:01;;;;;;;30.98;19.20;;;1.50;99.90;;;;;;5056601;28;20075;-46
2022/01/11 11:10:41;;;;;;;34.20;19.17;;;1.50;99.90;;;;;;5061362;28;20045;-47
2022/01/11 11:13:09;;;;;;;33.60;19.10;;;1.50;99.90;;;;;;5060050;28;20052;-47
2022/01/11 11:15:38;;;;;;;28.33;17.58;;;1.60;99.90;;;;;;5056153;28;20553;-47
2022/01/11 11:18:07;;;;;;;30.50;18.45;;;1.60;99.90;;;;;;5058177;28;20487;-46
2022/01/11 11:20:34;;;;;;;32.60;18.98;;;1.60;99.90;;;;;;5068647;28;20041;-47
2022/01/11 11:23:00;;;;;;;39.55;20.73;;;1.60;99.90;;;;;;5058099;28;20333;-46
2022/01/11 11:25:26;;;;;;;35.67;19.48;;;1.70;99.90;;;;;;5052313;28;20056;-49
2022/01/11 11:27:52;;;;;;;38.00;21.63;;;1.80;99.90;;;;;;5064199;28;20498;-49
2022/01/11 11:30:18;;;;;;;32.65;20.00;;;1.90;99.90;;;;;;5067308;28;20059;-47
2022/01/11 11:32:48;;;;;;;37.08;21.23;;;2.00;99.90;;;;;;5066813;28;20386;-48
2022/01/11 11:35:15;;;;;;;32.92;18.55;;;2.10;99.90;;;;;;5060489;28;20041;-47
2022/01/11 11:37:42;;;;;;;31.73;18.67;;;2.10;99.90;;;;;;5054124;28;20045;-47
2022/01/11 11:40:13;;;;;;;30.38;18.83;;;2.10;99.90;;;;;;5068789;28;20416;-49
2022/01/11 11:42:39;;;;;;;32.60;18.95;;;2.20;99.90;;;;;;5071197;28;20415;-46
2022/01/11 11:45:23;;;;;;;33.58;19.13;;;2.30;99.90;;;;;;5060648;28;20056;-50
2022/01/11 11:47:49;;;;;;;34.03;19.30;;;2.40;99.90;;;;;;5067955;28;20102;-48
2022/01/11 11:50:21;;;;;;;32.97;20.02;;;2.40;99.90;;;;;;5057604;28;20090;-48
2022/01/11 11:52:50;;;;;;;32.00;19.13;;;2.30;99.90;;;;;;5067105;28;20044;-47
2022/01/11 11:55:27;;;;;;;32.70;19.75;;;2.30;99.90;;;;;;5060736;28;20386;-47
2022/01/11 11:58:05;;;;;;;34.30;18.98;;;2.30;99.90;;;;;;5057183;28;20064;-48
2022/01/11 12:00:43;;;;;;;33.47;20.05;;;2.30;99.90;;;;;;5067190;28;20490;-47
2022/01/11 12:03:25;;;;;;;31.48;17.80;;;2.30;99.90;;;;;;5059935;28;20051;-46
2022/01/11 12:05:55;;;;;;;34.65;18.63;;;2.20;99.90;;;;;;5060004;28;20043;-50
2022/01/11 12:08:42;;;;;;;31.38;18.38;;;2.20;99.90;;;;;;5055144;28;20120;-48
2022/01/11 12:11:15;;;;;;;35.58;19.13;;;2.20;99.90;;;;;;5053528;28;20183;-47
2022/01/11 12:13:44;;;;;;;33.65;18.55;;;2.20;99.90;;;;;;5065213;28;20059;-48
2022/01/11 12:16:24;;;;;;;38.95;20.08;;;2.20;99.90;;;;;;5061148;28;20040;-46
2022/01/11 12:19:38;;;;;;;37.00;19.73;;;2.20;99.90;;;;;;5058334;28;20040;-49
2022/01/11 12:22:06;;;;;;;36.70;20.55;;;2.30;99.90;;;;;;5054266;28;20140;-47
2022/01/11 12:24:41;;;;;;;35.30;19.38;;;2.30;99.90;;;;;;5059764;28;20045;-46
2022/01/11 12:27:10;;;;;;;36.55;19.88;;;2.40;99.90;;;;;;5061212;28;20136;-47
2022/01/11 12:29:37;;;;;;;36.42;20.02;;;2.40;99.90;;;;;;5057902;28;20052;-47
2022/01/11 12:32:08;;;;;;;38.42;20.30;;;2.40;99.90;;;;;;5070046;28;20070;-49
2022/01/11 12:34:46;;;;;;;36.30;20.98;;;2.40;99.90;;;;;;5058337;28;20418;-47